Time,TemperatureF,DewpointF,PressureIn,WindDirection,WindDirectionDegrees,WindSpeedMPH,WindSpeedGustMPH,Humidity,HourlyPrecipIn,Conditions,Clouds,dailyrainin,SolarRadiationWatts/m^2,SoftwareType,DateUTC
2014-02-09 00:03:00,19.0,17.0,-100.00,North,-999,0.0,2.0,92,0.00,,,0.06,0.000000,,2014-02-09 05:03:00,
2014-02-09 00:12:00,19.0,17.0,-100.00,North,-999,0.0,2.0,92,0.00,,,0.06,0.000000,,2014-02-09 05:12:00,
2014-02-09 00:43:00,19.0,17.0,-100.00,North,-999,0.0,2.0,92,0.00,,,0.06,0.000000,,2014-02-09 05:43:00,
2014-02-09 00:52:00,19.0,17.0,-100.00,North,-999,0.0,2.0,92,0.00,,,0.06,0.000000,,2014-02-09 05:52:00,
2014-02-09 01:02:00,19.0,17.0,-100.00,North,-999,0.0,2.0,92,0.00,,,0.06,0.000000,,2014-02-09 06:02:00,
2014-02-09 01:12:00,20.0,18.0,-100.00,North,-999,0.0,2.0,92,0.00,,,0.06,0.000000,,2014-02-09 06:12:00,
2014-02-09 01:43:00,20.0,18.0,-100.00,North,-999,0.0,2.0,92,0.00,,,0.06,0.000000,,2014-02-09 06:43:00,
2014-02-09 01:52:00,20.0,18.0,-100.00,North,-999,0.0,2.0,92,0.00,,,0.06,0.000000,,2014-02-09 06:52:00,
2014-02-09 02:02:00,20.0,18.0,-100.00,North,-999,0.0,2.0,92,0.00,,,0.06,0.000000,,2014-02-09 07:02:00,
2014-02-09 02:12:00,21.0,20.0,-100.00,North,-999,0.0,3.0,95,0.00,,,0.06,0.000000,,2014-02-09 07:12:00,
2014-02-09 02:42:00,21.0,20.0,-100.00,North,-999,0.0,3.0,95,0.00,,,0.06,0.000000,,2014-02-09 07:42:00,
2014-02-09 02:52:00,21.0,20.0,-100.00,North,-999,0.0,3.0,95,0.00,,,0.06,0.000000,,2014-02-09 07:52:00,
2014-02-09 03:02:00,21.0,20.0,-100.00,North,-999,0.0,3.0,95,0.00,,,0.06,0.000000,,2014-02-09 08:02:00,
2014-02-09 03:12:00,21.0,20.0,-100.00,North,-999,0.0,2.0,97,0.00,,,0.06,0.000000,,2014-02-09 08:12:00,
2014-02-09 03:42:00,21.0,20.0,-100.00,North,-999,0.0,2.0,97,0.00,,,0.06,0.000000,,2014-02-09 08:42:00,
2014-02-09 03:52:00,21.0,20.0,-100.00,North,-999,0.0,2.0,97,0.00,,,0.06,0.000000,,2014-02-09 08:52:00,
2014-02-09 04:02:00,21.0,20.0,-100.00,North,-999,0.0,2.0,97,0.00,,,0.06,0.000000,,2014-02-09 09:02:00,
2014-02-09 04:12:00,23.0,23.0,-100.00,South,179,1.0,9.0,98,0.00,,,0.06,0.000000,,2014-02-09 09:12:00,
2014-02-09 04:43:00,23.0,23.0,-100.00,South,179,1.0,9.0,98,0.00,,,0.06,0.000000,,2014-02-09 09:43:00,
2014-02-09 04:53:00,23.0,23.0,-100.00,South,179,1.0,9.0,98,0.00,,,0.06,0.000000,,2014-02-09 09:53:00,
2014-02-09 05:03:00,23.0,23.0,-100.00,South,179,1.0,9.0,98,0.00,,,0.06,0.000000,,2014-02-09 10:03:00,
2014-02-09 05:12:00,23.0,23.0,-100.00,North,-999,0.0,9.0,98,0.00,,,0.06,0.000000,,2014-02-09 10:12:00,
2014-02-09 05:43:00,23.0,23.0,-100.00,North,-999,0.0,9.0,98,0.00,,,0.06,0.000000,,2014-02-09 10:43:00,
2014-02-09 05:53:00,23.0,23.0,-100.00,North,-999,0.0,9.0,98,0.00,,,0.06,0.000000,,2014-02-09 10:53:00,
2014-02-09 06:02:00,23.0,23.0,-100.00,North,-999,0.0,9.0,98,0.00,,,0.06,0.000000,,2014-02-09 11:02:00,
2014-02-09 06:12:00,23.0,23.0,-100.00,North,-999,0.0,4.0,98,0.00,,,0.06,0.000000,,2014-02-09 11:12:00,
2014-02-09 06:42:00,23.0,23.0,-100.00,North,-999,0.0,4.0,98,0.00,,,0.06,0.000000,,2014-02-09 11:42:00,
2014-02-09 06:53:00,23.0,23.0,-100.00,North,-999,0.0,4.0,98,0.00,,,0.06,0.000000,,2014-02-09 11:53:00,
2014-02-09 07:02:00,23.0,23.0,-100.00,North,-999,0.0,4.0,98,0.00,,,0.06,0.000000,,2014-02-09 12:02:00,
2014-02-09 07:12:00,24.0,24.0,-100.00,NW,321,1.0,5.0,99,0.00,,,0.06,0.000000,,2014-02-09 12:12:00,
2014-02-09 07:42:00,24.0,24.0,-100.00,NW,321,1.0,5.0,99,0.00,,,0.06,0.000000,,2014-02-09 12:42:00,
2014-02-09 07:53:00,24.0,24.0,-100.00,NW,321,1.0,5.0,99,0.00,,,0.06,0.000000,,2014-02-09 12:53:00,
2014-02-09 08:02:00,24.0,24.0,-100.00,NW,321,1.0,5.0,99,0.00,,,0.06,0.000000,,2014-02-09 13:02:00,
2014-02-09 08:12:00,24.0,24.0,-100.00,West,272,1.0,5.0,99,0.00,,,0.06,4.000000,,2014-02-09 13:12:00,
2014-02-09 08:42:00,24.0,24.0,-100.00,West,272,1.0,5.0,99,0.00,,,0.06,4.000000,,2014-02-09 13:42:00,
2014-02-09 08:52:00,24.0,24.0,-100.00,West,272,1.0,5.0,99,0.00,,,0.06,4.000000,,2014-02-09 13:52:00,
2014-02-09 09:02:00,24.0,24.0,-100.00,West,272,1.0,5.0,99,0.00,,,0.06,4.000000,,2014-02-09 14:02:00,
2014-02-09 09:42:00,26.0,26.0,-100.00,SE,129,1.0,6.0,99,0.00,,,0.06,24.000000,,2014-02-09 14:42:00,
2014-02-09 09:53:00,26.0,26.0,-100.00,SE,129,1.0,6.0,99,0.00,,,0.06,24.000000,,2014-02-09 14:53:00,
2014-02-09 10:02:00,26.0,26.0,-100.00,SE,129,1.0,6.0,99,0.00,,,0.06,24.000000,,2014-02-09 15:02:00,
2014-02-09 10:11:00,26.0,26.0,-100.00,SE,129,1.0,6.0,99,0.00,,,0.06,24.000000,,2014-02-09 15:11:00,
2014-02-09 10:12:00,27.0,26.0,-100.00,SSE,156,2.0,5.0,97,0.00,,,0.06,59.000000,,2014-02-09 15:12:00,
2014-02-09 10:44:00,27.0,26.0,-100.00,SSE,156,2.0,5.0,97,0.00,,,0.06,59.000000,,2014-02-09 15:44:00,
2014-02-09 10:53:00,27.0,26.0,-100.00,SSE,156,2.0,5.0,97,0.00,,,0.06,59.000000,,2014-02-09 15:53:00,
2014-02-09 11:04:00,27.0,26.0,-100.00,SSE,156,2.0,5.0,97,0.00,,,0.06,59.000000,,2014-02-09 16:04:00,
2014-02-09 11:12:00,28.0,28.0,-100.00,North,-999,0.0,6.0,98,0.00,,,0.05,56.000000,,2014-02-09 16:12:00,
2014-02-09 11:43:00,28.0,28.0,-100.00,North,-999,0.0,6.0,98,0.00,,,0.05,56.000000,,2014-02-09 16:43:00,
2014-02-09 11:53:00,28.0,28.0,-100.00,North,-999,0.0,6.0,98,0.00,,,0.05,56.000000,,2014-02-09 16:53:00,
2014-02-09 12:02:00,28.0,28.0,-100.00,North,-999,0.0,6.0,98,0.00,,,0.05,56.000000,,2014-02-09 17:02:00,
2014-02-09 12:12:00,29.0,28.0,-100.00,SSE,156,2.0,9.0,96,0.00,,,0.03,64.000000,,2014-02-09 17:12:00,
2014-02-09 12:43:00,29.0,28.0,-100.00,SSE,156,2.0,9.0,96,0.00,,,0.03,64.000000,,2014-02-09 17:43:00,
2014-02-09 12:53:00,29.0,28.0,-100.00,SSE,156,2.0,9.0,96,0.00,,,0.03,64.000000,,2014-02-09 17:53:00,
2014-02-09 13:02:00,29.0,28.0,-100.00,SSE,156,2.0,9.0,96,0.00,,,0.03,64.000000,,2014-02-09 18:02:00,
2014-02-09 13:43:00,29.0,28.0,-100.00,South,184,3.0,10.0,96,0.00,,,0.02,62.000000,,2014-02-09 18:43:00,
2014-02-09 13:52:00,29.0,28.0,-100.00,South,184,3.0,10.0,96,0.00,,,0.02,62.000000,,2014-02-09 18:52:00,
2014-02-09 14:02:00,29.0,28.0,-100.00,South,184,3.0,10.0,96,0.00,,,0.02,62.000000,,2014-02-09 19:02:00,
2014-02-09 14:11:00,29.0,28.0,-100.00,South,184,3.0,10.0,96,0.00,,,0.02,62.000000,,2014-02-09 19:11:00,
2014-02-09 14:42:00,29.0,29.0,-100.00,WNW,287,1.0,9.0,98,0.00,,,0.02,34.000000,,2014-02-09 19:42:00,
2014-02-09 14:52:00,29.0,29.0,-100.00,WNW,287,1.0,9.0,98,0.00,,,0.02,34.000000,,2014-02-09 19:52:00,
2014-02-09 15:02:00,29.0,29.0,-100.00,WNW,287,1.0,9.0,98,0.00,,,0.02,34.000000,,2014-02-09 20:02:00,
2014-02-09 15:11:00,29.0,29.0,-100.00,WNW,287,1.0,9.0,98,0.00,,,0.02,34.000000,,2014-02-09 20:11:00,
2014-02-09 15:42:00,29.0,29.0,-100.00,NNW,348,2.0,12.0,99,0.00,,,0.00,16.000000,,2014-02-09 20:42:00,
2014-02-09 15:53:00,29.0,29.0,-100.00,NNW,348,2.0,12.0,99,0.00,,,0.00,16.000000,,2014-02-09 20:53:00,
2014-02-09 16:02:00,29.0,29.0,-100.00,NNW,348,2.0,12.0,99,0.00,,,0.00,16.000000,,2014-02-09 21:02:00,
2014-02-09 16:11:00,29.0,29.0,-100.00,NNW,348,2.0,12.0,99,0.00,,,0.00,16.000000,,2014-02-09 21:11:00,
2014-02-09 16:12:00,27.0,27.0,-100.00,NW,317,2.0,10.0,99,0.00,,,0.00,5.000000,,2014-02-09 21:12:00,
2014-02-09 16:43:00,27.0,27.0,-100.00,NW,317,2.0,10.0,99,0.00,,,0.00,5.000000,,2014-02-09 21:43:00,
2014-02-09 16:53:00,27.0,27.0,-100.00,NW,317,2.0,10.0,99,0.00,,,0.00,5.000000,,2014-02-09 21:53:00,
2014-02-09 17:04:00,27.0,27.0,-100.00,NW,317,2.0,10.0,99,0.00,,,0.00,5.000000,,2014-02-09 22:04:00,
2014-02-09 17:12:00,24.0,24.0,-100.00,NNW,335,2.0,9.0,98,0.00,,,0.00,1.000000,,2014-02-09 22:12:00,
2014-02-09 17:43:00,24.0,24.0,-100.00,NNW,335,2.0,9.0,98,0.00,,,0.00,1.000000,,2014-02-09 22:43:00,
2014-02-09 17:53:00,24.0,24.0,-100.00,NNW,335,2.0,9.0,98,0.00,,,0.00,1.000000,,2014-02-09 22:53:00,
2014-02-09 18:02:00,24.0,24.0,-100.00,NNW,335,2.0,9.0,98,0.00,,,0.00,1.000000,,2014-02-09 23:02:00,
2014-02-09 18:12:00,23.0,23.0,-100.00,WNW,303,1.0,8.0,98,0.00,,,0.00,0.000000,,2014-02-09 23:12:00,
2014-02-09 18:43:00,23.0,23.0,-100.00,WNW,303,1.0,8.0,98,0.00,,,0.00,0.000000,,2014-02-09 23:43:00,
2014-02-09 18:52:00,23.0,23.0,-100.00,WNW,303,1.0,8.0,98,0.00,,,0.00,0.000000,,2014-02-09 23:52:00,
2014-02-09 19:02:00,23.0,23.0,-100.00,WNW,303,1.0,8.0,98,0.00,,,0.00,0.000000,,2014-02-10 00:02:00,
2014-02-09 19:12:00,23.0,23.0,-100.00,NW,305,1.0,6.0,98,0.00,,,0.00,0.000000,,2014-02-10 00:12:00,
2014-02-09 19:42:00,23.0,23.0,-100.00,NW,305,1.0,6.0,98,0.00,,,0.00,0.000000,,2014-02-10 00:42:00,
2014-02-09 19:52:00,23.0,23.0,-100.00,NW,305,1.0,6.0,98,0.00,,,0.00,0.000000,,2014-02-10 00:52:00,
2014-02-09 20:02:00,23.0,23.0,-100.00,NW,305,1.0,6.0,98,0.00,,,0.00,0.000000,,2014-02-10 01:02:00,
2014-02-09 20:12:00,22.0,22.0,-100.00,NW,325,2.0,7.0,98,0.00,,,0.00,0.000000,,2014-02-10 01:12:00,
2014-02-09 20:42:00,22.0,22.0,-100.00,NW,325,2.0,7.0,98,0.00,,,0.00,0.000000,,2014-02-10 01:42:00,
2014-02-09 20:52:00,22.0,22.0,-100.00,NW,325,2.0,7.0,98,0.00,,,0.00,0.000000,,2014-02-10 01:52:00,
2014-02-09 21:02:00,22.0,22.0,-100.00,NW,325,2.0,7.0,98,0.00,,,0.00,0.000000,,2014-02-10 02:02:00,
2014-02-09 21:12:00,20.0,19.0,-100.00,NW,323,2.0,7.0,96,0.00,,,0.00,0.000000,,2014-02-10 02:12:00,
2014-02-09 21:42:00,20.0,19.0,-100.00,NW,323,2.0,7.0,96,0.00,,,0.00,0.000000,,2014-02-10 02:42:00,
2014-02-09 21:52:00,20.0,19.0,-100.00,NW,323,2.0,7.0,96,0.00,,,0.00,0.000000,,2014-02-10 02:52:00,
2014-02-09 22:02:00,20.0,19.0,-100.00,NW,323,2.0,7.0,96,0.00,,,0.00,0.000000,,2014-02-10 03:02:00,
2014-02-09 22:12:00,17.0,15.0,-100.00,NW,323,2.0,7.0,93,0.00,,,0.00,0.000000,,2014-02-10 03:12:00,
2014-02-09 22:44:00,17.0,15.0,-100.00,NW,323,2.0,7.0,93,0.00,,,0.00,0.000000,,2014-02-10 03:44:00,
2014-02-09 22:53:00,17.0,15.0,-100.00,NW,323,2.0,7.0,93,0.00,,,0.00,0.000000,,2014-02-10 03:53:00,
2014-02-09 23:03:00,17.0,15.0,-100.00,NW,323,2.0,7.0,93,0.00,,,0.00,0.000000,,2014-02-10 04:03:00,
2014-02-09 23:12:00,16.0,14.0,-100.00,NW,323,2.0,6.0,92,0.00,,,0.00,0.000000,,2014-02-10 04:12:00,
2014-02-09 23:43:00,16.0,14.0,-100.00,NW,323,2.0,6.0,92,0.00,,,0.00,0.000000,,2014-02-10 04:43:00,
2014-02-09 23:53:00,16.0,14.0,-100.00,NW,323,2.0,6.0,92,0.00,,,0.00,0.000000,,2014-02-10 04:53:00,